Time;durP1;ratioP1;P1;durP2;ratioP2;P2;SDS_P1;SDS_P2;PMS_P1;PMS_P2;Temp;Humidity;BMP_temperature;BMP_pressure;BME280_temperature;BME280_humidity;BME280_pressure;Samples;Min_cycle;Max_cycle;Signal;HPM_P1;HPM_P2
2021/06/14 00:01:13;;;;;;;7.13;2.50;;;;;;;18.56;48.73;96340.28;4993351;28;20313;-88
2021/06/14 00:03:39;;;;;;;3.10;2.45;;;;;;;18.34;49.18;96344.97;4993461;28;20242;-87
2021/06/14 00:06:06;;;;;;;3.80;2.17;;;;;;;18.39;49.76;96341.75;4993410;28;20203;-87
2021/06/14 00:08:32;;;;;;;3.22;2.13;;;;;;;18.49;48.70;96344.72;4993104;28;20195;-88
2021/06/14 00:11:00;;;;;;;4.22;2.53;;;;;;;18.60;48.71;96333.66;4980311;28;20227;-88
2021/06/14 00:13:27;;;;;;;4.32;2.53;;;;;;;18.60;49.17;96334.47;4987878;28;20204;-86
2021/06/14 00:15:54;;;;;;;3.65;2.70;;;;;;;18.56;48.98;96337.66;4973945;28;20204;-88
2021/06/14 00:18:23;;;;;;;4.18;2.45;;;;;;;18.62;49.04;96331.66;4973926;28;20211;-87
2021/06/14 00:20:55;;;;;;;2.45;2.20;;;;;;;18.56;49.67;96332.44;4973314;28;20220;-88
2021/06/14 00:23:23;;;;;;;3.17;2.67;;;;;;;18.59;49.03;96332.06;4974250;28;20212;-86
2021/06/14 00:25:51;;;;;;;3.40;2.50;;;;;;;18.56;48.95;96333.25;4973752;28;20204;-87
2021/06/14 00:28:18;;;;;;;3.75;2.70;;;;;;;18.53;48.99;96338.88;4973855;28;20211;-87
2021/06/14 00:30:46;;;;;;;2.53;2.33;;;;;;;18.51;49.50;96332.25;4973290;28;20220;-88
2021/06/14 00:33:14;;;;;;;4.32;2.67;;;;;;;18.46;49.79;96330.31;4982838;28;20231;-87
2021/06/14 00:35:47;;;;;;;3.03;2.78;;;;;;;18.48;49.49;96330.06;4992793;28;20222;-87
2021/06/14 00:38:15;;;;;;;4.03;2.47;;;;;;;18.51;49.36;96330.47;4992355;28;20208;-87
2021/06/14 00:40:42;;;;;;;3.95;2.67;;;;;;;18.58;49.85;96328.63;4992192;28;20227;-87
2021/06/14 00:43:10;;;;;;;3.78;2.75;;;;;;;18.59;49.46;96332.06;4993572;28;20559;-89
2021/06/14 00:45:40;;;;;;;3.00;2.28;;;;;;;18.58;49.28;96328.63;4993438;28;20223;-87
2021/06/14 00:48:07;;;;;;;3.72;2.55;;;;;;;18.55;49.55;96318.59;4993731;28;20211;-87
2021/06/14 00:50:38;;;;;;;2.85;2.63;;;;;;;18.58;49.13;96326.03;4992866;28;20231;-87
2021/06/14 00:53:08;;;;;;;3.63;2.60;;;;;;;18.54;49.09;96318.81;4995656;28;20663;-88
2021/06/14 00:55:35;;;;;;;2.90;2.55;;;;;;;18.53;49.34;96315.41;4996694;28;20203;-88
2021/06/14 00:58:01;;;;;;;2.85;2.63;;;;;;;18.34;49.95;96318.91;4997358;28;20218;-88
2021/06/14 01:00:28;;;;;;;3.33;2.60;;;;;;;18.29;49.87;96300.47;4996510;28;20220;-86
2021/06/14 01:02:54;;;;;;;3.67;2.50;;;;;;;18.34;50.07;96313.69;4996267;28;20231;-87
2021/06/14 01:05:23;;;;;;;3.13;2.80;;;;;;;18.29;50.75;96300.47;4996160;28;20199;-87
2021/06/14 01:07:50;;;;;;;3.50;2.70;;;;;;;18.36;49.83;96297.84;4996238;28;20195;-87
2021/06/14 01:10:18;;;;;;;3.65;2.50;;;;;;;18.42;49.87;96302.22;4995823;28;20227;-87
2021/06/14 01:12:52;;;;;;;2.47;2.28;;;;;;;18.34;49.92;96305.88;4996136;28;20214;-88
2021/06/14 01:15:21;;;;;;;2.85;2.60;;;;;;;18.21;50.94;96304.13;4976708;28;20225;-87
2021/06/14 01:17:53;;;;;;;2.90;2.33;;;;;;;18.24;50.23;96297.69;4976587;28;20211;-87
2021/06/14 01:20:42;;;;;;;5.40;2.55;;;;;;;18.19;50.74;96307.94;4976861;28;20204;-88
2021/06/14 01:23:24;;;;;;;3.38;2.40;;;;;;;18.01;51.21;96300.78;4976410;28;20212;-87
2021/06/14 01:25:56;;;;;;;2.70;2.50;;;;;;;18.00;51.25;96306.19;4976568;28;20200;-88
2021/06/14 01:28:25;;;;;;;4.70;2.78;;;;;;;18.04;50.91;96300.38;4976657;28;20215;-87
2021/06/14 01:30:53;;;;;;;2.58;2.38;;;;;;;18.06;50.95;96305.38;4976264;28;20235;-87
2021/06/14 01:33:23;;;;;;;2.75;2.47;;;;;;;17.89;52.04;96308.44;4976366;28;20255;-86
2021/06/14 01:35:52;;;;;;;2.97;2.50;;;;;;;17.79;51.89;96305.44;4976484;28;20733;-87
2021/06/14 01:38:20;;;;;;;3.40;2.33;;;;;;;17.64;52.04;96301.44;4976244;28;20231;-89
2021/06/14 01:40:49;;;;;;;2.67;2.47;;;;;;;17.58;52.82;96298.63;4992161;28;20223;-88
2021/06/14 01:43:18;;;;;;;4.05;3.00;;;;;;;17.64;52.66;96297.06;4996186;28;20207;-87
2021/06/14 01:45:50;;;;;;;4.43;2.63;;;;;;;17.66;53.09;96295.06;4995600;28;20204;-87
2021/06/14 01:48:19;;;;;;;3.30;3.00;;;;;;;17.61;53.57;96292.22;4996623;28;20214;-87
2021/06/14 01:50:46;;;;;;;3.00;2.70;;;;;;;17.68;52.88;96293.03;4995207;28;20308;-88
2021/06/14 01:53:13;;;;;;;4.03;2.80;;;;;;;17.73;52.86;96285.41;4995281;28;20199;-88
2021/06/14 01:55:40;;;;;;;3.97;2.80;;;;;;;17.72;52.94;96290.81;4995222;28;20199;-89
2021/06/14 01:58:07;;;;;;;3.10;2.80;;;;;;;17.73;53.45;96274.97;4994938;28;20204;-88
2021/06/14 02:00:38;;;;;;;3.15;2.80;;;;;;;17.73;53.13;96272.38;4994791;28;20226;-87
2021/06/14 02:03:07;;;;;;;4.25;2.83;;;;;;;17.70;53.19;96275.41;4995024;28;20569;-88
2021/06/14 02:05:35;;;;;;;12.13;10.88;;;;;;;17.67;53.10;96262.78;4995551;28;20211;-87
2021/06/14 02:08:02;;;;;;;3.53;3.22;;;;;;;17.58;53.53;96267.38;4995010;28;20218;-87
2021/06/14 02:10:30;;;;;;;3.28;2.97;;;;;;;17.48;53.30;96259.19;4995335;28;20231;-88
2021/06/14 02:12:57;;;;;;;2.80;2.60;;;;;;;17.46;53.79;96258.59;4995484;28;20203;-86
2021/06/14 02:15:24;;;;;;;3.25;2.95;;;;;;;17.49;54.40;96255.59;4995658;28;20207;-86
2021/06/14 02:17:55;;;;;;;3.28;2.97;;;;;;;17.45;53.79;96262.19;4997661;28;20200;-88
2021/06/14 02:20:24;;;;;;;5.25;2.85;;;;;;;17.25;54.45;96258.81;4997328;28;20214;-88
2021/06/14 02:22:56;;;;;;;3.42;3.13;;;;;;;17.30;53.95;96250.41;4994443;28;20210;-86
2021/06/14 02:25:23;;;;;;;4.07;2.78;;;;;;;17.38;54.08;96248.38;4994433;28;20203;-86
2021/06/14 02:27:50;;;;;;;3.38;3.00;;;;;;;17.30;54.04;96247.81;4993910;28;20686;-85
2021/06/14 02:30:21;;;;;;;3.22;2.90;;;;;;;17.08;54.11;96249.81;4994075;28;20258;-87
2021/06/14 02:32:50;;;;;;;3.10;2.78;;;;;;;16.96;54.13;96246.19;4994331;28;20227;-88
2021/06/14 02:35:17;;;;;;;3.10;2.80;;;;;;;16.88;54.61;96249.81;4995208;28;20219;-88
2021/06/14 02:37:48;;;;;;;4.60;3.08;;;;;;;17.00;54.33;96252.59;4994682;28;20203;-88
2021/06/14 02:40:16;;;;;;;3.95;3.00;;;;;;;17.17;53.69;96249.41;4994018;28;20203;-87
2021/06/14 02:42:44;;;;;;;3.85;2.47;;;;;;;17.12;52.98;96243.22;4994374;28;20207;-88
2021/06/14 02:45:11;;;;;;;4.93;2.65;;;;;;;17.04;52.74;96235.59;4994355;28;20215;-87
2021/06/14 02:47:39;;;;;;;3.97;2.85;;;;;;;17.09;52.45;96236.59;4994819;28;20200;-87
2021/06/14 02:50:08;;;;;;;3.10;2.80;;;;;;;17.15;52.68;96240.97;4994257;28;20307;-87
2021/06/14 02:52:38;;;;;;;4.68;2.60;;;;;;;17.21;52.27;96239.38;4994277;28;20697;-88
2021/06/14 02:55:13;;;;;;;2.75;2.47;;;;;;;17.14;52.53;96235.97;4994540;28;20218;-87
2021/06/14 02:57:44;;;;;;;22.23;19.75;;;;;;;17.25;52.32;96233.59;4994615;28;20199;-89
2021/06/14 03:00:13;;;;;;;11.40;8.75;;;;;;;17.22;52.17;96235.78;4994258;28;20313;-87
2021/06/14 03:02:41;;;;;;;4.32;3.90;;;;;;;17.27;51.97;96236.78;4994264;28;20203;-86
2021/06/14 03:05:09;;;;;;;3.55;2.85;;;;;;;17.26;52.14;96224.78;4993737;28;20211;-88
2021/06/14 03:07:36;;;;;;;3.53;2.50;;;;;;;17.15;52.24;96225.38;4993752;28;20368;-86
2021/06/14 03:10:07;;;;;;;4.43;2.55;;;;;;;16.92;52.83;96227.59;4993388;28;20228;-88
2021/06/14 03:12:33;;;;;;;3.50;2.72;;;;;;;16.73;53.85;96229.19;4993418;28;20226;-87
2021/06/14 03:15:03;;;;;;;4.80;2.60;;;;;;;16.75;54.85;96232.38;4986304;28;20195;-88
2021/06/14 03:17:30;;;;;;;4.25;2.70;;;;;;;16.66;54.00;96236.19;4975069;28;20196;-86
2021/06/14 03:19:58;;;;;;;4.60;2.75;;;;;;;16.59;54.60;96233.53;4974772;28;20208;-88
2021/06/14 03:22:24;;;;;;;3.67;3.13;;;;;;;16.62;54.49;96234.13;4974022;28;20240;-87
2021/06/14 03:24:51;;;;;;;2.92;2.58;;;;;;;16.62;54.29;96240.13;4973501;28;20200;-87
2021/06/14 03:27:20;;;;;;;4.68;3.10;;;;;;;16.83;53.82;96234.00;4973849;28;20204;-88
2021/06/14 03:29:49;;;;;;;3.97;2.47;;;;;;;16.96;53.68;96230.59;4973295;28;20243;-88
2021/06/14 03:32:16;;;;;;;3.15;2.60;;;;;;;16.89;53.55;96230.59;4973162;28;20235;-85
2021/06/14 03:34:43;;;;;;;3.13;2.63;;;;;;;16.92;53.79;96238.81;4974051;28;20219;-88
2021/06/14 03:37:10;;;;;;;4.82;2.95;;;;;;;16.89;53.85;96234.00;4974458;28;20215;-86
2021/06/14 03:39:39;;;;;;;4.90;3.33;;;;;;;16.86;53.58;96225.78;4981273;28;20229;-87
2021/06/14 03:42:06;;;;;;;4.47;2.80;;;;;;;16.82;54.11;96237.59;4994265;28;20230;-88
2021/06/14 03:44:36;;;;;;;4.30;3.47;;;;;;;16.77;54.64;96238.19;4994747;28;20203;-84
2021/06/14 03:47:04;;;;;;;3.30;2.72;;;;;;;16.73;54.70;96238.78;5004220;28;20204;-85
2021/06/14 03:49:33;;;;;;;4.70;3.10;;;;;;;16.84;54.10;96240.78;4999864;28;20207;-87
2021/06/14 03:52:02;;;;;;;3.00;2.60;;;;;;;16.99;54.16;96235.38;5005439;28;20270;-88
2021/06/14 03:54:29;;;;;;;3.28;2.97;;;;;;;17.07;53.68;96237.81;5006357;28;20230;-88
2021/06/14 03:56:55;;;;;;;3.85;3.00;;;;;;;17.19;53.67;96239.59;5006405;28;20206;-87
2021/06/14 03:59:21;;;;;;;6.60;3.22;;;;;;;17.15;52.98;96246.19;5006501;28;20203;-89
2021/06/14 04:01:49;;;;;;;5.05;3.03;;;;;;;17.10;53.20;96248.63;5006572;28;20219;-87
2021/06/14 04:04:34;;;;;;;3.72;2.83;;;;;;;17.21;53.77;96255.00;5003597;28;20203;-88
2021/06/14 04:07:00;;;;;;;3.45;2.80;;;;;;;17.62;54.76;96252.16;4981707;28;20291;-89
2021/06/14 04:09:27;;;;;;;4.90;2.92;;;;;;;18.07;54.84;96252.25;4977215;28;20200;-87
2021/06/14 04:11:54;;;;;;;5.75;3.17;;;;;;;18.41;53.43;96245.88;4976527;28;20232;-85
2021/06/14 04:14:20;;;;;;;9.70;2.88;;;;;;;18.73;52.42;96251.91;4990426;28;20286;-89
2021/06/14 04:16:46;;;;;;;7.07;2.83;;;;;;;18.94;51.41;96254.19;4997436;28;20198;-88
2021/06/14 04:19:14;;;;;;;5.22;2.60;;;;;;;19.17;51.57;96251.00;4994833;28;20195;-86
2021/06/14 04:21:41;;;;;;;3.60;2.70;;;;;;;19.28;49.17;96256.31;5011283;28;20238;-88
2021/06/14 04:24:08;;;;;;;4.82;2.70;;;;;;;19.27;49.89;96254.72;5010108;28;20203;-88
2021/06/14 04:26:34;;;;;;;6.13;3.22;;;;;;;19.40;49.92;96250.41;5000359;28;20207;-87
2021/06/14 04:29:01;;;;;;;3.90;2.45;;;;;;;19.65;49.21;96244.13;5003742;28;20199;-88
2021/06/14 04:31:30;;;;;;;4.00;3.30;;;;;;;19.56;48.87;96252.47;5002881;28;20227;-89
2021/06/14 04:33:59;;;;;;;7.30;3.40;;;;;;;19.32;48.27;96248.84;5004271;28;20238;-86
2021/06/14 04:36:27;;;;;;;5.38;2.90;;;;;;;19.31;50.25;96249.88;5002858;28;20198;-88
2021/06/14 04:38:54;;;;;;;4.78;2.92;;;;;;;19.59;49.75;96247.63;5001313;28;20621;-85
2021/06/14 04:41:20;;;;;;;4.07;3.10;;;;;;;19.60;48.03;96246.63;5001272;28;20219;-83
2021/06/14 04:43:46;;;;;;;4.25;3.03;;;;;;;19.62;48.84;96239.38;5002547;28;20199;-89
2021/06/14 04:46:13;;;;;;;4.63;3.28;;;;;;;19.80;48.56;96245.59;5015444;28;20555;-88
2021/06/14 04:48:39;;;;;;;3.97;2.97;;;;;;;19.83;47.87;96245.16;5022869;28;20296;-87
2021/06/14 04:51:06;;;;;;;4.68;3.20;;;;;;;19.85;48.36;96241.31;5022259;28;20222;-88
2021/06/14 04:53:34;;;;;;;5.93;3.10;;;;;;;20.08;48.31;96234.63;5021993;28;20207;-85
2021/06/14 04:56:00;;;;;;;6.82;2.55;;;;;;;20.30;48.16;96233.13;5021706;28;20194;-86
2021/06/14 04:58:27;;;;;;;5.18;3.20;;;;;;;20.45;47.47;96232.75;5022326;28;20195;-88
2021/06/14 05:00:53;;;;;;;5.45;2.90;;;;;;;20.62;47.19;96237.13;5025256;28;20228;-86
2021/06/14 05:03:20;;;;;;;3.60;3.00;;;;;;;20.59;46.54;96229.72;5022911;28;20202;-86
2021/06/14 05:05:46;;;;;;;3.38;2.85;;;;;;;20.26;46.14;96238.00;5023132;28;20202;-86
2021/06/14 05:08:18;;;;;;;3.92;2.92;;;;;;;20.24;47.26;96232.19;5022874;28;20288;-87
2021/06/14 05:10:46;;;;;;;5.65;2.85;;;;;;;20.32;47.53;96231.09;5023484;28;20298;-86
2021/06/14 05:13:13;;;;;;;4.47;3.13;;;;;;;20.27;46.04;96230.94;5018515;28;20711;-87
2021/06/14 05:15:39;;;;;;;5.30;3.22;;;;;;;20.13;47.23;96230.34;5000815;28;20686;-86
2021/06/14 05:18:06;;;;;;;4.03;3.08;;;;;;;20.16;46.72;96235.13;5002071;28;20207;-87
2021/06/14 05:20:33;;;;;;;5.68;3.10;;;;;;;19.91;47.09;96235.22;5003903;28;20229;-84
2021/06/14 05:23:02;;;;;;;5.63;3.47;;;;;;;19.89;47.42;96237.25;5005892;28;20207;-87
2021/06/14 05:25:29;;;;;;;5.63;2.88;;;;;;;20.12;48.09;96233.97;5004407;28;20199;-88
2021/06/14 05:27:56;;;;;;;13.05;10.45;;;;;;;20.31;47.88;96234.72;5002897;28;20211;-89
2021/06/14 05:30:24;;;;;;;5.28;4.63;;;;;;;20.26;47.56;96227.53;5001511;28;20223;-85
2021/06/14 05:32:52;;;;;;;5.22;3.90;;;;;;;20.19;46.46;96229.47;4999623;28;20227;-87
2021/06/14 05:35:18;;;;;;;3.92;3.40;;;;;;;20.11;46.97;96221.91;5000252;28;20203;-86
2021/06/14 05:37:44;;;;;;;4.65;3.20;;;;;;;19.96;46.26;96234.56;5000140;28;20230;-88
2021/06/14 05:40:12;;;;;;;7.32;3.40;;;;;;;19.89;46.68;96239.06;4999758;28;20203;-86
2021/06/14 05:42:39;;;;;;;5.85;3.25;;;;;;;19.70;46.05;96240.88;4995463;28;20210;-85
2021/06/14 05:45:08;;;;;;;4.53;3.22;;;;;;;19.54;46.97;96241.44;4995328;28;20290;-84
2021/06/14 05:47:34;;;;;;;7.85;3.30;;;;;;;19.40;46.89;96238.13;4995480;28;20210;-87
2021/06/14 05:50:03;;;;;;;4.00;2.95;;;;;;;19.21;47.75;96245.16;4995504;28;20207;-87
2021/06/14 05:52:29;;;;;;;3.47;3.10;;;;;;;19.29;47.47;96242.25;4995779;28;20302;-86
2021/06/14 05:54:56;;;;;;;6.82;3.22;;;;;;;19.42;47.28;96233.50;4995819;28;20199;-88
2021/06/14 05:57:22;;;;;;;5.13;3.35;;;;;;;19.62;47.33;96236.75;4995915;28;20750;-85
2021/06/14 05:59:49;;;;;;;3.97;3.17;;;;;;;19.63;47.01;96235.69;4996624;28;20206;-86
2021/06/14 06:02:16;;;;;;;4.25;3.10;;;;;;;19.59;46.44;96244.22;4995419;28;20216;-86
2021/06/14 06:04:43;;;;;;;7.20;3.40;;;;;;;19.64;46.38;96237.31;4996883;28;20214;-89
2021/06/14 06:07:09;;;;;;;5.05;3.03;;;;;;;19.67;46.10;96233.47;4998608;28;20203;-88
2021/06/14 06:09:36;;;;;;;4.88;3.17;;;;;;;19.50;46.26;96240.28;4997816;28;20212;-88
2021/06/14 06:12:03;;;;;;;5.93;2.78;;;;;;;19.53;46.79;96232.81;4996847;28;20227;-89
2021/06/14 06:14:29;;;;;;;5.78;3.13;;;;;;;19.56;46.41;96235.00;4995821;28;20200;-88
2021/06/14 06:16:56;;;;;;;6.25;3.17;;;;;;;19.54;46.11;96238.84;4996675;28;20233;-90
2021/06/14 06:19:24;;;;;;;5.15;3.28;;;;;;;19.57;46.73;96238.41;4996457;28;20207;-89
2021/06/14 06:21:50;;;;;;;4.78;3.05;;;;;;;19.52;46.57;96233.03;4997862;28;20235;-90
2021/06/14 06:24:17;;;;;;;6.72;3.30;;;;;;;19.38;46.15;96228.91;4997302;28;20212;-89
2021/06/14 06:26:43;;;;;;;4.68;3.00;;;;;;;19.25;46.54;96238.44;4995925;28;20196;-89
2021/06/14 06:29:15;;;;;;;4.68;3.22;;;;;;;19.15;46.48;96230.31;4996273;28;20211;-91
2021/06/14 06:31:42;;;;;;;5.03;3.00;;;;;;;19.18;46.24;96234.31;4996523;28;20265;-87
2021/06/14 06:34:09;;;;;;;5.57;3.10;;;;;;;19.19;46.55;96230.69;4995469;28;20294;-89
2021/06/14 06:36:37;;;;;;;3.70;2.80;;;;;;;19.32;47.35;96227.97;4995942;28;20204;-88
2021/06/14 06:39:06;;;;;;;4.90;2.45;;;;;;;19.42;48.57;96225.66;4995819;28;20207;-88
2021/06/14 06:41:33;;;;;;;4.10;2.90;;;;;;;19.41;47.71;96216.22;4995315;28;20234;-85
2021/06/14 06:43:59;;;;;;;4.45;3.00;;;;;;;19.49;48.37;96213.31;4995929;28;20208;-85
2021/06/14 06:46:29;;;;;;;4.13;2.85;;;;;;;19.61;47.21;96216.88;4993607;28;20210;-85
2021/06/14 06:48:55;;;;;;;5.80;3.30;;;;;;;19.57;46.80;96209.66;5007516;28;20809;-89
2021/06/14 06:51:22;;;;;;;3.05;2.75;;;;;;;19.64;46.46;96211.19;5011527;28;20483;-87
2021/06/14 06:54:10;;;;;;;5.43;2.80;;;;;;;19.80;47.52;96216.84;4997694;28;20206;-90
2021/06/14 06:56:44;;;;;;;4.22;2.85;;;;;;;19.96;47.02;96214.44;4996824;28;20203;-89
2021/06/14 06:59:11;;;;;;;4.15;2.80;;;;;;;20.16;46.16;96218.63;5006979;28;20199;-86
2021/06/14 07:01:38;;;;;;;5.22;2.95;;;;;;;20.13;45.62;96209.41;5002327;28;20219;-85
2021/06/14 07:04:05;;;;;;;4.05;2.90;;;;;;;20.20;46.19;96207.53;4981401;28;20428;-86
2021/06/14 07:06:34;;;;;;;4.68;2.97;;;;;;;20.21;45.15;96218.75;4996573;28;20673;-89
2021/06/14 07:09:13;;;;;;;7.47;2.70;;;;;;;20.17;45.31;96207.97;4986630;28;20195;-89
2021/06/14 07:11:43;;;;;;;3.83;2.75;;;;;;;20.34;46.41;96210.75;4978998;28;20228;-90
2021/06/14 07:14:10;;;;;;;4.68;2.83;;;;;;;20.53;46.22;96214.94;4993692;28;20203;-88
2021/06/14 07:16:38;;;;;;;5.25;2.90;;;;;;;20.40;45.23;96214.34;4998832;28;20584;-88
2021/06/14 07:19:07;;;;;;;9.63;2.88;;;;;;;20.38;45.31;96209.31;4996178;28;20270;-88
2021/06/14 07:21:34;;;;;;;3.30;2.50;;;;;;;20.29;44.27;96206.19;4995865;28;20310;-90
2021/06/14 07:24:02;;;;;;;4.30;2.95;;;;;;;20.25;44.63;96206.84;4996263;28;20290;-89
2021/06/14 07:26:29;;;;;;;4.28;3.10;;;;;;;20.16;44.95;96211.59;4997629;28;20711;-89
2021/06/14 07:28:55;;;;;;;3.90;3.00;;;;;;;20.26;46.47;96209.22;4997647;28;20294;-88
2021/06/14 07:31:23;;;;;;;4.95;2.65;;;;;;;20.22;45.44;96215.91;4996102;28;20658;-88
2021/06/14 07:33:50;;;;;;;3.85;2.70;;;;;;;20.24;45.44;96213.06;4994653;28;20291;-86
2021/06/14 07:36:17;;;;;;;6.43;2.78;;;;;;;20.43;45.93;96214.66;4997492;28;20762;-89
2021/06/14 07:38:44;;;;;;;4.65;3.22;;;;;;;20.43;46.54;96203.41;4996962;28;20739;-90
2021/06/14 07:41:12;;;;;;;6.53;2.60;;;;;;;20.57;45.74;96203.00;4997212;28;20224;-89
2021/06/14 07:43:39;;;;;;;4.00;2.40;;;;;;;20.76;46.42;96208.16;4995616;28;20278;-90
2021/06/14 07:46:05;;;;;;;2.75;2.55;;;;;;;20.91;44.37;96209.31;4996325;28;20231;-88
2021/06/14 07:48:32;;;;;;;4.20;2.58;;;;;;;21.00;44.31;96201.91;4995863;28;20290;-89
2021/06/14 07:50:59;;;;;;;3.10;2.47;;;;;;;20.93;44.11;96204.66;4992057;28;20221;-89
2021/06/14 07:53:26;;;;;;;3.65;2.78;;;;;;;20.79;44.78;96199.84;5004717;28;20200;-89
2021/06/14 07:55:55;;;;;;;4.55;2.95;;;;;;;20.74;45.34;96194.50;4996861;28;20238;-90
2021/06/14 07:58:23;;;;;;;3.40;2.80;;;;;;;20.73;45.78;96206.00;4995653;28;20520;-88
2021/06/14 08:00:52;;;;;;;5.78;2.70;;;;;;;20.72;45.90;96197.34;4996146;28;20227;-88
2021/06/14 08:03:20;;;;;;;6.25;2.60;;;;;;;20.91;45.23;96198.06;4996109;28;20207;-88
2021/06/14 08:05:47;;;;;;;4.60;2.85;;;;;;;21.06;44.69;96208.09;4996033;28;20203;-90
2021/06/14 08:08:14;;;;;;;5.60;2.83;;;;;;;21.21;45.34;96196.16;4996854;28;20210;-89
2021/06/14 08:10:41;;;;;;;4.28;2.70;;;;;;;21.27;45.67;96202.31;4995801;28;20301;-87
2021/06/14 08:13:08;;;;;;;4.82;2.50;;;;;;;21.48;44.96;96203.56;4996272;28;20234;-89
2021/06/14 08:15:37;;;;;;;3.33;2.70;;;;;;;21.47;45.57;96189.66;4996015;28;20212;-88
2021/06/14 08:18:13;;;;;;;4.53;2.80;;;;;;;21.60;44.80;96185.97;4995675;28;20211;-89
2021/06/14 08:20:44;;;;;;;15.05;3.17;;;;;;;21.62;43.37;96189.97;4994740;28;20223;-89
2021/06/14 08:25:57;;;;;;;4.55;2.47;;;;;;;21.76;42.95;96189.72;4985795;28;20230;-89
2021/06/14 08:28:23;;;;;;;4.32;2.70;;;;;;;21.76;42.96;96184.47;4996485;28;20207;-90
2021/06/14 08:30:51;;;;;;;3.45;2.70;;;;;;;21.83;43.79;96183.31;4995553;28;20257;-88
2021/06/14 08:33:18;;;;;;;3.25;2.67;;;;;;;21.82;42.60;96184.34;4995225;28;20231;-89
2021/06/14 08:35:44;;;;;;;5.38;2.67;;;;;;;21.73;43.39;96182.34;4996235;28;20241;-88
2021/06/14 08:38:11;;;;;;;3.67;2.65;;;;;;;21.84;42.81;96184.13;4995607;28;20192;-88
2021/06/14 08:40:38;;;;;;;3.13;2.40;;;;;;;22.14;43.07;96186.53;4994810;28;20234;-88
2021/06/14 08:43:05;;;;;;;3.67;2.70;;;;;;;22.32;41.76;96187.16;4993753;28;20198;-89
2021/06/14 08:45:34;;;;;;;4.35;2.70;;;;;;;22.42;40.88;96183.91;4994451;28;20207;-90
2021/06/14 08:48:04;;;;;;;6.75;2.90;;;;;;;22.52;41.24;96180.66;4995108;28;20207;-90
2021/06/14 08:50:31;;;;;;;4.82;2.67;;;;;;;22.58;41.03;96177.09;4996354;28;20199;-89
2021/06/14 08:52:57;;;;;;;7.78;2.90;;;;;;;22.45;40.69;96185.28;4994547;28;20234;-90
2021/06/14 08:55:24;;;;;;;5.03;2.80;;;;;;;22.53;40.68;96177.00;4994465;28;20275;-90
2021/06/14 08:57:52;;;;;;;2.63;2.40;;;;;;;22.59;40.61;96173.44;4994486;28;20210;-89
2021/06/14 09:00:21;;;;;;;3.22;2.50;;;;;;;22.70;40.78;96169.97;4994437;28;20290;-89
2021/06/14 09:02:48;;;;;;;7.18;2.80;;;;;;;22.79;41.12;96170.38;4995758;28;20203;-89
2021/06/14 09:05:20;;;;;;;3.00;2.70;;;;;;;22.94;39.79;96163.53;4994597;28;20210;-89
2021/06/14 09:07:50;;;;;;;7.63;3.10;;;;;;;22.90;40.74;96170.28;4996123;28;20296;-89
2021/06/14 09:10:25;;;;;;;5.05;2.67;;;;;;;23.08;41.10;96164.81;4995446;28;20738;-87
2021/06/14 09:12:53;;;;;;;3.58;2.75;;;;;;;23.29;39.48;96157.97;4994990;28;20237;-89
2021/06/14 09:15:24;;;;;;;3.65;2.78;;;;;;;23.46;38.57;96163.22;4997778;28;20231;-89
2021/06/14 09:17:55;;;;;;;4.00;2.40;;;;;;;23.61;39.52;96167.91;4997940;28;20203;-89
2021/06/14 09:20:25;;;;;;;3.30;2.78;;;;;;;23.59;37.97;96164.72;4998316;28;20206;-89
2021/06/14 09:22:52;;;;;;;5.57;2.63;;;;;;;23.71;38.82;96168.81;4997074;28;20207;-89
2021/06/14 09:25:20;;;;;;;3.63;2.70;;;;;;;23.75;38.55;96155.97;4997220;28;20204;-88
2021/06/14 09:27:48;;;;;;;3.53;2.55;;;;;;;23.90;38.66;96152.72;4998051;28;20211;-89
2021/06/14 09:30:22;;;;;;;2.90;2.50;;;;;;;24.03;36.57;96155.00;4997208;28;20216;-90
2021/06/14 09:33:07;;;;;;;3.60;2.40;;;;;;;24.23;37.82;96159.66;4995361;28;20257;-88
2021/06/14 09:35:37;;;;;;;4.25;2.55;;;;;;;24.36;37.41;96149.56;4998226;28;20258;-89
2021/06/14 09:38:06;;;;;;;4.82;2.58;;;;;;;24.58;37.47;96143.44;4998294;28;20211;-88
2021/06/14 09:40:42;;;;;;;6.28;2.70;;;;;;;24.70;37.47;96152.72;4996708;28;20214;-89
2021/06/14 09:43:24;;;;;;;3.80;2.33;;;;;;;24.84;36.88;96150.47;4996726;28;20195;-89
2021/06/14 09:45:52;;;;;;;4.28;2.70;;;;;;;24.64;36.34;96143.19;4996840;28;20226;-87
2021/06/14 09:48:20;;;;;;;3.85;2.35;;;;;;;24.62;36.89;96149.78;4996950;28;20242;-88
2021/06/14 09:50:51;;;;;;;6.22;2.92;;;;;;;24.81;36.85;96152.84;4995787;28;20221;-89
2021/06/14 09:53:22;;;;;;;3.35;2.83;;;;;;;24.73;35.48;96152.25;4995459;28;20353;-89
2021/06/14 09:55:54;;;;;;;5.88;2.78;;;;;;;24.85;35.94;96144.16;4997080;28;20642;-88
2021/06/14 09:58:23;;;;;;;4.55;2.90;;;;;;;25.10;36.68;96144.34;4997643;28;20212;-89
2021/06/14 10:00:52;;;;;;;5.13;2.85;;;;;;;25.09;35.55;96139.34;4997006;28;20816;-88
2021/06/14 10:03:26;;;;;;;4.28;2.67;;;;;;;25.06;34.71;96139.84;4997522;28;20217;-88
2021/06/14 10:05:57;;;;;;;3.53;2.65;;;;;;;25.10;34.75;96133.81;4978658;28;20204;-89
2021/06/14 10:08:29;;;;;;;5.65;2.35;;;;;;;25.17;35.36;96144.16;4977712;28;20689;-89
2021/06/14 10:11:04;;;;;;;3.88;2.30;;;;;;;25.31;33.76;96134.72;4977470;28;20380;-89
2021/06/14 10:13:35;;;;;;;3.38;2.58;;;;;;;25.20;32.73;96135.72;4981107;28;20227;-90
2021/06/14 10:16:03;;;;;;;5.18;2.25;;;;;;;25.20;34.05;96134.94;4996071;28;20191;-88
2021/06/14 10:18:35;;;;;;;2.42;2.22;;;;;;;25.33;33.68;96131.84;4997199;28;20226;-89
2021/06/14 10:21:04;;;;;;;5.45;2.15;;;;;;;25.26;32.55;96126.78;4996884;28;20227;-89
2021/06/14 10:23:33;;;;;;;4.13;2.10;;;;;;;25.45;34.46;96120.03;4996927;28;20211;-87
2021/06/14 10:26:02;;;;;;;3.72;2.60;;;;;;;25.75;35.81;96115.97;4994713;28;20206;-87
2021/06/14 10:28:29;;;;;;;5.43;2.50;;;;;;;25.97;33.81;96113.91;4994213;28;20206;-87
2021/06/14 10:30:56;;;;;;;2.60;2.40;;;;;;;25.83;33.43;96109.38;4994984;28;20227;-87
2021/06/14 10:33:24;;;;;;;3.33;2.60;;;;;;;25.73;34.07;96110.16;4994647;28;20231;-85
2021/06/14 10:35:54;;;;;;;4.78;2.45;;;;;;;25.69;32.70;96107.22;4994162;28;20203;-86
2021/06/14 10:38:22;;;;;;;3.40;2.50;;;;;;;25.80;33.41;96114.13;4995116;28;20195;-85
2021/06/14 10:40:53;;;;;;;2.90;2.28;;;;;;;26.04;33.29;96109.16;4993769;28;20216;-88
2021/06/14 10:43:28;;;;;;;3.70;2.50;;;;;;;26.24;33.31;96108.41;4994880;28;20849;-87
2021/06/14 10:45:57;;;;;;;3.78;2.30;;;;;;;26.33;32.33;96109.50;4994666;28;20209;-88
2021/06/14 10:48:26;;;;;;;3.53;2.40;;;;;;;26.34;33.24;96105.81;4994119;28;20207;-87
2021/06/14 10:50:53;;;;;;;4.32;2.60;;;;;;;26.44;33.42;96111.09;4994321;28;20310;-86
2021/06/14 10:53:34;;;;;;;3.83;2.60;;;;;;;26.39;33.51;96100.50;4995322;28;20223;-88
2021/06/14 10:56:02;;;;;;;3.25;2.53;;;;;;;26.39;32.61;96108.44;4995001;28;20207;-86
2021/06/14 10:58:32;;;;;;;5.38;2.83;;;;;;;26.41;33.48;96111.63;4994405;28;20203;-85
2021/06/14 11:01:00;;;;;;;5.00;2.42;;;;;;;26.47;33.75;96102.66;4994480;28;20223;-88
2021/06/14 11:03:41;;;;;;;8.82;3.10;;;;;;;26.53;32.50;96097.38;4993467;28;20207;-89
2021/06/14 11:06:29;;;;;;;4.63;2.28;;;;;;;26.55;33.46;96089.97;4994048;28;20217;-88
2021/06/14 11:09:08;;;;;;;5.50;2.67;;;;;;;26.76;32.66;96087.03;4993934;28;20200;-88
2021/06/14 11:12:24;;;;;;;4.68;2.28;;;;;;;26.90;31.46;96074.06;4992539;28;20231;-88
2021/06/14 11:14:51;;;;;;;3.72;2.40;;;;;;;26.69;32.16;96077.81;4982589;28;20555;-88
2021/06/14 11:17:23;;;;;;;4.07;2.60;;;;;;;26.74;32.19;96070.69;4992953;28;20310;-89
2021/06/14 11:19:52;;;;;;;3.80;2.50;;;;;;;26.83;32.92;96070.91;4993712;28;20207;-88
2021/06/14 11:22:20;;;;;;;5.57;2.33;;;;;;;27.10;33.04;96067.97;4991764;28;20227;-89
2021/06/14 11:24:48;;;;;;;3.17;2.50;;;;;;;27.14;32.21;96061.06;5004709;28;20214;-89
2021/06/14 11:27:16;;;;;;;3.58;2.95;;;;;;;26.99;31.40;96059.28;5001176;28;20203;-90
2021/06/14 11:29:47;;;;;;;4.93;2.72;;;;;;;26.91;32.39;96056.38;4991658;28;20200;-87
2021/06/14 11:32:19;;;;;;;2.80;2.50;;;;;;;26.87;31.78;96044.75;4990079;28;20234;-88
2021/06/14 11:34:47;;;;;;;3.67;2.55;;;;;;;26.91;32.17;96046.59;4992336;28;20199;-90
2021/06/14 11:37:14;;;;;;;2.95;2.38;;;;;;;27.12;33.23;96039.41;4991810;28;20294;-89
2021/06/14 11:39:41;;;;;;;3.42;2.45;;;;;;;27.15;32.30;96034.38;4992280;28;20722;-88
2021/06/14 11:42:13;;;;;;;3.20;2.60;;;;;;;27.10;31.71;96034.41;4992423;28;20224;-87
2021/06/14 11:44:53;;;;;;;3.95;2.63;;;;;;;26.85;31.19;96031.78;4993232;28;20203;-89